Time;durP1;ratioP1;P1;durP2;ratioP2;P2;SDS_P1;SDS_P2;PMS_P1;PMS_P2;Temp;Humidity;BMP_temperature;BMP_pressure;BME280_temperature;BME280_humidity;BME280_pressure;Samples;Min_cycle;Max_cycle;Signal;HPM_P1;HPM_P2
2023/07/04 00:01:23;;;;;;;12.50;9.60;;;;;;;19.48;100.00;100829.42;109063;1248;58311;-68
2023/07/04 00:03:55;;;;;;;11.40;8.70;;;;;;;19.52;100.00;100825.83;109338;1244;74444;-68
2023/07/04 00:06:29;;;;;;;12.30;8.70;;;;;;;19.58;100.00;100827.09;109364;1243;61280;-68
2023/07/04 00:08:58;;;;;;;14.40;9.10;;;;;;;19.67;100.00;100829.84;109186;1243;59941;-67
2023/07/04 00:11:29;;;;;;;13.50;10.20;;;;;;;19.79;100.00;100831.02;109343;1243;72952;-68
2023/07/04 00:13:58;;;;;;;15.60;10.40;;;;;;;19.93;100.00;100833.89;109367;1245;57899;-67
2023/07/04 00:16:27;;;;;;;16.70;9.30;;;;;;;20.13;100.00;100829.52;109352;1243;58311;-68
2023/07/04 00:18:56;;;;;;;12.40;10.00;;;;;;;20.27;100.00;100828.02;109351;1245;63630;-68
2023/07/04 00:21:26;;;;;;;16.30;11.80;;;;;;;20.34;100.00;100829.86;109405;1244;71472;-68
2023/07/04 00:23:55;;;;;;;17.30;11.10;;;;;;;20.41;100.00;100829.10;109145;1244;352655;-68
2023/07/04 00:26:26;;;;;;;15.20;11.00;;;;;;;20.52;100.00;100830.40;109458;1243;73739;-69
2023/07/04 00:28:55;;;;;;;14.20;9.30;;;;;;;20.58;100.00;100830.92;109374;1244;63528;-68
2023/07/04 00:31:24;;;;;;;15.60;10.40;;;;;;;20.66;100.00;100827.20;109271;1244;61475;-69
2023/07/04 00:33:54;;;;;;;14.50;11.20;;;;;;;20.73;100.00;100826.36;109351;1244;74186;-69
2023/07/04 00:36:23;;;;;;;11.50;9.20;;;;;;;20.84;100.00;100825.30;109334;1244;72774;-69
2023/07/04 00:38:56;;;;;;;12.80;10.10;;;;;;;20.88;100.00;100826.22;109357;1243;69987;-69
2023/07/04 00:41:29;;;;;;;15.90;10.20;;;;;;;20.88;100.00;100827.18;109371;1245;64640;-68
2023/07/04 00:44:14;;;;;;;11.80;9.40;;;;;;;20.82;100.00;100825.06;109180;1248;62684;-68
2023/07/04 00:47:06;;;;;;;11.30;8.70;;;;;;;20.79;100.00;100829.02;109302;1244;60677;-67
2023/07/04 00:49:48;;;;;;;;;;;;;;;20.69;100.00;100833.02;109418;1244;74778;-68
2023/07/04 00:52:27;;;;;;;13.20;9.30;;;;;;;20.52;100.00;100834.82;109262;1244;72475;-68
2023/07/04 00:55:01;;;;;;;17.60;9.60;;;;;;;20.37;100.00;100840.52;109240;1243;60179;-68
2023/07/04 00:57:33;;;;;;;12.40;9.40;;;;;;;20.33;100.00;100843.56;109122;1245;74549;-68
2023/07/04 01:00:29;;;;;;;15.00;10.90;;;;;;;20.45;100.00;100840.51;109312;1245;62561;-68
2023/07/04 01:03:11;;;;;;;10.90;8.80;;;;;;;20.57;100.00;100842.54;109426;1244;61007;-68
2023/07/04 01:06:17;;;;;;;10.50;9.00;;;;;;;20.69;100.00;100841.22;109256;1244;63357;-68
2023/07/04 01:08:49;;;;;;;13.90;8.90;;;;;;;20.69;100.00;100843.11;109366;1243;71432;-68
2023/07/04 01:11:29;;;;;;;13.50;9.10;;;;;;;20.65;100.00;100843.10;109265;1244;70550;-69
2023/07/04 01:13:58;;;;;;;11.80;9.10;;;;;;;20.57;100.00;100845.88;109222;1244;74332;-69
2023/07/04 01:16:27;;;;;;;12.50;10.20;;;;;;;20.59;100.00;100847.63;109204;1244;63440;-69
2023/07/04 01:18:58;;;;;;;11.60;9.00;;;;;;;20.63;100.00;100851.06;109192;1244;61485;-68
2023/07/04 01:21:28;;;;;;;14.10;9.50;;;;;;;20.69;100.00;100848.48;109310;1244;66063;-69
2023/07/04 01:24:34;;;;;;;13.70;9.80;;;;;;;20.73;100.00;100848.92;109364;1242;71660;-69
2023/07/04 01:27:03;;;;;;;13.40;10.70;;;;;;;20.80;100.00;100849.98;109442;1244;70259;-69
2023/07/04 01:29:36;;;;;;;14.70;10.60;;;;;;;20.84;100.00;100849.23;109346;1244;72654;-69
2023/07/04 01:32:05;;;;;;;15.70;11.20;;;;;;;20.82;100.00;100856.33;109529;1244;62699;-70
2023/07/04 01:34:34;;;;;;;13.40;9.90;;;;;;;20.82;100.00;100854.59;109441;1244;58446;-68
2023/07/04 01:37:04;;;;;;;12.40;9.00;;;;;;;20.77;100.00;100850.52;109389;1244;63568;-68
2023/07/04 01:39:33;;;;;;;11.50;9.30;;;;;;;20.64;100.00;100848.86;109526;1244;71533;-68
2023/07/04 01:42:05;;;;;;;13.20;9.60;;;;;;;20.55;100.00;100848.27;109379;1243;69638;-69
2023/07/04 01:44:34;;;;;;;11.50;9.30;;;;;;;20.45;100.00;100852.21;109313;1244;73931;-69
2023/07/04 01:47:02;;;;;;;12.20;9.40;;;;;;;20.38;100.00;100855.65;109535;1243;64232;-69
2023/07/04 01:49:32;;;;;;;14.20;9.60;;;;;;;20.33;100.00;100860.40;109542;1244;58272;-68
2023/07/04 01:52:01;;;;;;;12.90;9.30;;;;;;;20.30;100.00;100860.25;109424;1244;74404;-68
2023/07/04 01:54:30;;;;;;;12.40;9.20;;;;;;;20.21;100.00;100858.09;109415;1243;72639;-69
2023/07/04 01:56:59;;;;;;;12.50;9.40;;;;;;;20.10;100.00;100860.64;109525;1244;59743;-68
2023/07/04 01:59:28;;;;;;;14.50;8.90;;;;;;;19.95;100.00;100863.38;109428;1245;63076;-69
2023/07/04 02:01:57;;;;;;;15.00;11.00;;;;;;;19.91;100.00;100863.67;109321;1247;62183;-69
2023/07/04 02:04:25;;;;;;;14.20;10.20;;;;;;;19.97;100.00;100862.45;109408;1244;60729;-68
2023/07/04 02:06:56;;;;;;;13.50;9.70;;;;;;;20.02;100.00;100871.27;109338;1244;75066;-68
2023/07/04 02:09:25;;;;;;;11.50;9.30;;;;;;;20.09;100.00;100874.92;109388;1243;72585;-68
2023/07/04 02:11:53;;;;;;;15.30;9.30;;;;;;;20.07;100.00;100874.23;109520;1243;71509;-68
2023/07/04 02:14:24;;;;;;;15.20;9.70;;;;;;;20.04;100.00;100875.72;109512;1244;74396;-68
2023/07/04 02:16:53;;;;;;;13.70;9.80;;;;;;;19.96;100.00;100875.70;109333;1247;62316;-68
2023/07/04 02:19:21;;;;;;;14.00;10.50;;;;;;;19.83;100.00;100879.55;109430;1243;61342;-69
2023/07/04 02:21:50;;;;;;;14.10;11.10;;;;;;;19.75;100.00;100876.54;109362;1247;63801;-68
2023/07/04 02:24:19;;;;;;;15.30;10.50;;;;;;;19.76;100.00;100874.59;109553;1244;61991;-68
2023/07/04 02:26:49;;;;;;;14.30;11.50;;;;;;;19.81;100.00;100873.36;109450;1244;70273;-68
2023/07/04 02:29:18;;;;;;;14.20;10.30;;;;;;;19.84;100.00;100874.98;109366;1243;73505;-69
2023/07/04 02:31:46;;;;;;;15.20;10.70;;;;;;;19.83;100.00;100878.06;109382;1246;62431;-68
2023/07/04 02:34:15;;;;;;;13.90;9.80;;;;;;;19.77;100.00;100877.23;109415;1245;61009;-70
2023/07/04 02:36:44;;;;;;;14.00;10.40;;;;;;;19.71;100.00;100877.12;109397;1247;64259;-69
2023/07/04 02:39:14;;;;;;;15.60;9.90;;;;;;;19.68;100.00;100876.06;109498;1244;60708;-69
2023/07/04 02:41:42;;;;;;;13.90;10.10;;;;;;;19.63;100.00;100876.45;109408;1243;70672;-69
2023/07/04 02:44:11;;;;;;;13.90;10.80;;;;;;;19.61;100.00;100877.20;109379;1244;64432;-70
2023/07/04 02:46:40;;;;;;;14.60;10.90;;;;;;;19.60;100.00;100875.83;109311;1247;62182;-69
2023/07/04 02:49:09;;;;;;;15.10;12.40;;;;;;;19.63;100.00;100881.00;109335;1244;60769;-69
2023/07/04 02:51:38;;;;;;;15.20;12.10;;;;;;;19.68;100.00;100884.94;109321;1247;63735;-69
2023/07/04 02:54:07;;;;;;;16.70;11.30;;;;;;;19.76;100.00;100887.04;109333;1247;61014;-69
2023/07/04 02:56:36;;;;;;;18.20;12.20;;;;;;;19.75;100.00;100887.83;109384;1244;60613;-69
2023/07/04 02:59:05;;;;;;;14.50;11.00;;;;;;;19.86;100.00;100885.41;109251;1249;62325;-69
2023/07/04 03:01:34;;;;;;;16.60;12.10;;;;;;;19.90;100.00;100890.15;109310;1245;63594;-68
2023/07/04 03:04:03;;;;;;;15.30;10.40;;;;;;;19.98;100.00;100893.42;109351;1247;57877;-68
2023/07/04 03:06:33;;;;;;;16.30;11.40;;;;;;;20.08;100.00;100893.45;109389;1243;73601;-69
2023/07/04 03:09:03;;;;;;;16.60;10.80;;;;;;;20.14;100.00;100885.67;109319;1244;62187;-70
2023/07/04 03:11:31;;;;;;;15.00;11.10;;;;;;;20.19;100.00;100891.52;109517;1243;70324;-69
2023/07/04 03:14:00;;;;;;;13.30;10.10;;;;;;;20.21;100.00;100890.78;109379;1244;63654;-69
2023/07/04 03:16:29;;;;;;;13.10;9.80;;;;;;;20.22;100.00;100889.11;109382;1247;63196;-69
2023/07/04 03:18:58;;;;;;;17.30;10.90;;;;;;;20.22;100.00;100893.16;109439;1247;62038;-69
2023/07/04 03:21:27;;;;;;;17.10;11.00;;;;;;;20.25;100.00;100894.52;109498;1245;64582;-69
2023/07/04 03:23:57;;;;;;;18.20;12.40;;;;;;;20.25;100.00;100896.29;109546;1244;62109;-69
2023/07/04 03:26:26;;;;;;;19.40;11.90;;;;;;;20.29;100.00;100892.88;109424;1244;59299;-70
2023/07/04 03:28:55;;;;;;;17.50;11.90;;;;;;;20.33;100.00;100890.44;109522;1243;73061;-69
2023/07/04 03:31:25;;;;;;;17.60;11.90;;;;;;;20.44;100.00;100885.70;109514;1243;63226;-69
2023/07/04 03:33:53;;;;;;;16.50;11.70;;;;;;;20.53;100.00;100886.69;109412;1246;60830;-68
2023/07/04 03:36:22;;;;;;;17.50;12.70;;;;;;;20.60;100.00;100883.59;109361;1247;64186;-70
2023/07/04 03:38:51;;;;;;;14.50;10.50;;;;;;;20.69;100.00;100880.27;109580;1244;61512;-70
2023/07/04 03:41:20;;;;;;;20.30;10.40;;;;;;;20.74;100.00;100880.80;109385;1243;69694;-70
2023/07/04 03:43:48;;;;;;;11.00;9.00;;;;;;;20.76;100.00;100883.59;109503;1243;74099;-70
2023/07/04 03:46:17;;;;;;;15.20;10.90;;;;;;;20.69;100.00;100890.42;109431;1245;58339;-70
2023/07/04 03:48:48;;;;;;;15.70;10.70;;;;;;;20.56;100.00;100894.81;109359;1246;58351;-71
2023/07/04 03:51:17;;;;;;;15.40;10.70;;;;;;;20.48;100.00;100898.19;109435;1244;62802;-71
2023/07/04 03:53:48;;;;;;;14.00;11.30;;;;;;;20.41;100.00;100897.55;109238;1247;61846;-70
2023/07/04 03:56:17;;;;;;;14.50;11.20;;;;;;;20.32;100.00;100896.81;109421;1246;59071;-70
2023/07/04 03:58:46;;;;;;;13.10;11.20;;;;;;;20.31;100.00;100896.48;109327;1244;73887;-81
2023/07/04 04:01:15;;;;;;;15.30;11.60;;;;;;;20.31;100.00;100895.80;109476;1246;61968;-69
2023/07/04 04:03:44;;;;;;;15.10;11.70;;;;;;;20.35;100.00;100893.42;109416;1244;61016;-68
2023/07/04 04:06:13;;;;;;;18.40;12.90;;;;;;;20.42;100.00;100893.61;109443;1243;74673;-70
2023/07/04 04:08:41;;;;;;;14.90;11.30;;;;;;;20.51;100.00;100895.27;109436;1243;72164;-70
2023/07/04 04:11:10;;;;;;;20.60;12.80;;;;;;;20.58;100.00;100896.89;109441;1245;60924;-69
2023/07/04 04:13:39;;;;;;;16.40;11.40;;;;;;;20.70;100.00;100900.20;109277;1244;63357;-71
2023/07/04 04:16:08;;;;;;;21.20;13.60;;;;;;;20.84;100.00;100891.88;109389;1244;62820;-73
2023/07/04 04:18:36;;;;;;;19.10;13.50;;;;;;;20.96;100.00;100897.23;109424;1244;61350;-70
2023/07/04 04:21:07;;;;;;;17.70;13.00;;;;;;;21.11;100.00;100901.46;109417;1243;63003;-68
2023/07/04 04:23:36;;;;;;;17.00;12.80;;;;;;;21.21;100.00;100904.63;109261;1244;71553;-71
2023/07/04 04:26:06;;;;;;;16.60;13.50;;;;;;;21.29;100.00;100904.47;109294;1244;71144;-71
2023/07/04 04:28:35;;;;;;;20.50;14.40;;;;;;;21.33;100.00;100909.09;109150;1245;63499;-70
2023/07/04 04:31:04;;;;;;;22.80;13.70;;;;;;;21.42;100.00;100907.38;109183;1244;62784;-71
2023/07/04 04:33:33;;;;;;;20.00;15.30;;;;;;;21.56;100.00;100909.51;109210;1244;58362;-70
2023/07/04 04:36:02;;;;;;;17.60;13.60;;;;;;;21.62;100.00;100912.11;109234;1243;72887;-70
2023/07/04 04:38:31;;;;;;;19.20;13.10;;;;;;;21.71;100.00;100911.16;109218;1245;70853;-76
2023/07/04 04:41:05;;;;;;;21.20;13.60;;;;;;;21.79;100.00;100909.85;109270;1244;60203;-69
2023/07/04 04:43:34;;;;;;;21.60;13.20;;;;;;;21.88;100.00;100907.38;109190;1247;63026;-77
2023/07/04 04:46:03;;;;;;;20.80;14.40;;;;;;;21.94;100.00;100908.22;109327;1245;58378;-76
2023/07/04 04:48:36;;;;;;;16.50;12.70;;;;;;;22.01;100.00;100911.75;109349;1244;58399;-69
2023/07/04 04:51:07;;;;;;;21.70;13.70;;;;;;;22.14;100.00;100915.18;109317;1247;61380;-68
2023/07/04 04:53:37;;;;;;;20.10;14.00;;;;;;;22.29;100.00;100919.34;109350;1244;62064;-69
2023/07/04 04:56:10;;;;;;;19.50;13.30;;;;;;;22.40;100.00;100924.45;109386;1244;70479;-69
2023/07/04 04:58:43;;;;;;;21.30;14.50;;;;;;;22.40;100.00;100929.58;109354;1244;73702;-69
2023/07/04 05:01:23;;;;;;;20.90;14.80;;;;;;;22.45;100.00;100928.22;109415;1244;58262;-71
2023/07/04 05:03:56;;;;;;;25.80;14.00;;;;;;;22.54;100.00;100930.77;109411;1243;60011;-71
2023/07/04 05:06:26;;;;;;;19.70;12.90;;;;;;;22.72;100.00;100939.60;109473;1243;74181;-72
2023/07/04 05:08:55;;;;;;;15.40;11.50;;;;;;;22.88;100.00;100943.35;109403;1243;62076;-69
2023/07/04 05:11:28;;;;;;;20.90;11.90;;;;;;;23.05;100.00;100942.05;109480;1243;69750;-70
2023/07/04 05:13:56;;;;;;;13.80;11.20;;;;;;;23.10;100.00;100939.90;109473;1243;64166;-72
2023/07/04 05:16:25;;;;;;;15.10;11.30;;;;;;;23.21;100.00;100939.21;109440;1245;57767;-74
2023/07/04 05:18:54;;;;;;;13.30;10.20;;;;;;;23.35;100.00;100941.59;109404;1243;58225;-72
2023/07/04 05:21:23;;;;;;;12.90;9.60;;;;;;;23.43;100.00;100944.29;109428;1244;74319;-69
2023/07/04 05:23:52;;;;;;;15.50;10.20;;;;;;;23.49;100.00;100944.89;109378;1243;62602;-69
2023/07/04 05:26:27;;;;;;;13.00;9.00;;;;;;;23.57;100.00;100948.04;109392;1243;59994;-67
2023/07/04 05:29:03;;;;;;;12.40;9.50;;;;;;;23.58;100.00;100947.20;109435;1243;62280;-67
2023/07/04 05:31:32;;;;;;;15.10;10.00;;;;;;;23.62;100.00;100951.42;109307;1244;58361;-71
2023/07/04 05:34:01;;;;;;;15.30;8.60;;;;;;;23.72;100.00;100948.90;109393;1244;58185;-72
2023/07/04 05:36:33;;;;;;;12.50;8.80;;;;;;;23.70;100.00;100949.02;109330;1244;73621;-69
2023/07/04 05:39:06;;;;;;;13.30;9.50;;;;;;;23.78;100.00;100949.38;109458;1244;61496;-69
2023/07/04 05:41:36;;;;;;;12.50;9.00;;;;;;;23.92;100.00;100950.41;109347;1243;69552;-70
2023/07/04 05:44:08;;;;;;;11.30;8.30;;;;;;;24.06;100.00;100951.22;109350;1243;63104;-71
2023/07/04 05:46:37;;;;;;;11.10;9.20;;;;;;;24.21;100.00;100950.34;109420;1243;62032;-70
2023/07/04 05:49:07;;;;;;;13.50;8.40;;;;;;;24.29;100.00;100951.44;109203;1243;58220;-70
2023/07/04 05:51:36;;;;;;;11.60;9.00;;;;;;;24.36;100.00;100948.85;109394;1244;63633;-72
2023/07/04 05:54:05;;;;;;;15.60;10.30;;;;;;;24.42;100.00;100952.16;109399;1243;61666;-70
2023/07/04 05:56:34;;;;;;;12.20;8.60;;;;;;;24.66;100.00;100955.14;109329;1243;70343;-70
2023/07/04 05:59:02;;;;;;;12.10;7.90;;;;;;;24.86;100.00;100957.17;109321;1244;74165;-70
2023/07/04 06:01:34;;;;;;;10.60;7.80;;;;;;;24.99;100.00;100956.23;109377;1245;58296;-70
2023/07/04 06:04:09;;;;;;;12.10;8.90;;;;;;;25.05;99.80;100957.92;109382;1243;58374;-71
2023/07/04 06:06:42;;;;;;;13.70;9.70;;;;;;;25.12;98.71;100959.39;109386;1244;63010;-70
2023/07/04 06:09:15;;;;;;;19.50;9.30;;;;;;;25.23;99.22;100964.92;109256;1244;61594;-71
2023/07/04 06:11:46;;;;;;;12.80;9.60;;;;;;;25.32;98.57;100965.11;109361;1244;61011;-69
2023/07/04 06:14:34;;;;;;;15.80;8.70;;;;;;;25.16;98.16;100957.52;109014;1245;74362;-70
2023/07/04 06:17:04;;;;;;;14.80;9.60;;;;;;;25.25;98.05;100969.72;109318;1244;60811;-70
2023/07/04 06:19:33;;;;;;;12.90;8.60;;;;;;;25.43;98.20;100967.35;109372;1244;58223;-69
2023/07/04 06:22:05;;;;;;;15.20;8.90;;;;;;;25.52;97.40;100966.55;109384;1244;63088;-71
2023/07/04 06:24:36;;;;;;;10.00;8.70;;;;;;;25.65;97.17;100963.78;109396;1244;61541;-69
2023/07/04 06:27:05;;;;;;;13.80;9.20;;;;;;;25.61;95.68;100961.80;109393;1244;62166;-69
2023/07/04 06:29:34;;;;;;;11.20;8.90;;;;;;;25.57;94.87;100957.71;109380;1243;64261;-70
2023/07/04 06:32:03;;;;;;;13.20;8.50;;;;;;;25.45;95.42;100952.92;109424;1244;61038;-69
2023/07/04 06:34:32;;;;;;;12.60;9.00;;;;;;;25.54;95.44;100952.15;109457;1243;61376;-69
2023/07/04 06:37:00;;;;;;;16.00;11.10;;;;;;;25.68;94.49;100949.98;109483;1243;74026;-71
2023/07/04 06:39:29;;;;;;;10.90;8.30;;;;;;;25.86;93.90;100951.71;109445;1244;62015;-70
2023/07/04 06:41:58;;;;;;;14.20;9.70;;;;;;;25.94;92.43;100950.62;109447;1244;70374;-71
2023/07/04 06:44:31;;;;;;;12.30;8.90;;;;;;;26.03;92.08;100949.62;109350;1244;63794;-70
2023/07/04 06:47:00;;;;;;;14.20;9.10;;;;;;;26.22;91.46;100950.60;109400;1245;57863;-72
2023/07/04 06:49:29;;;;;;;10.20;8.10;;;;;;;26.33;89.62;100952.15;109285;1244;58131;-71
2023/07/04 06:52:00;;;;;;;9.70;7.90;;;;;;;26.53;90.67;100951.73;109322;1244;72645;-70
2023/07/04 06:54:28;;;;;;;10.30;7.40;;;;;;;26.66;89.03;100949.09;109326;1244;71955;-70
2023/07/04 06:56:57;;;;;;;12.60;8.60;;;;;;;26.45;88.56;100949.24;109367;1244;60430;-71
2023/07/04 06:59:26;;;;;;;11.10;7.80;;;;;;;26.46;88.47;100947.20;109295;1244;63094;-71
2023/07/04 07:01:55;;;;;;;12.80;9.80;;;;;;;26.35;88.41;100945.42;109287;1247;60582;-72
2023/07/04 07:04:24;;;;;;;11.80;8.50;;;;;;;26.47;87.98;100947.72;109341;1244;61746;-71
2023/07/04 07:06:53;;;;;;;12.10;8.20;;;;;;;26.69;87.53;100948.70;109204;1244;65517;-72
2023/07/04 07:09:22;;;;;;;10.60;7.80;;;;;;;26.71;86.41;100949.23;109366;1244;60854;-82
2023/07/04 07:11:51;;;;;;;9.70;7.70;;;;;;;26.90;86.41;100948.31;109366;1243;60309;-72
2023/07/04 07:14:20;;;;;;;10.50;7.80;;;;;;;27.09;85.89;100950.96;109246;1243;65372;-69
2023/07/04 07:16:48;;;;;;;10.70;7.80;;;;;;;27.18;84.72;100950.73;109263;1244;60559;-69
2023/07/04 07:19:17;;;;;;;14.00;7.90;;;;;;;27.26;84.64;100951.09;109283;1244;57679;-70
2023/07/04 07:21:47;;;;;;;9.90;7.60;;;;;;;27.30;83.44;100949.71;109295;1244;64145;-70
2023/07/04 07:24:16;;;;;;;10.00;8.30;;;;;;;27.44;83.38;100945.78;109297;1243;72036;-71
2023/07/04 07:26:44;;;;;;;8.60;7.00;;;;;;;27.45;82.25;100947.14;109190;1244;70913;-69
2023/07/04 07:29:13;;;;;;;8.90;7.80;;;;;;;27.71;82.71;100944.84;109278;1243;63580;-71
2023/07/04 07:31:42;;;;;;;8.60;6.60;;;;;;;27.76;80.18;100942.08;109257;1244;57883;-71
2023/07/04 07:34:11;;;;;;;8.90;7.80;;;;;;;27.83;79.65;100941.48;109147;1243;57764;-70
2023/07/04 07:36:42;;;;;;;8.60;7.30;;;;;;;27.89;80.74;100944.12;109311;1244;74473;-69
2023/07/04 07:39:14;;;;;;;10.90;7.50;;;;;;;27.96;79.28;100944.48;109260;1244;71071;-70
2023/07/04 07:41:47;;;;;;;10.90;7.60;;;;;;;28.09;79.38;100938.45;109393;1244;60392;-70
2023/07/04 07:44:17;;;;;;;8.10;7.10;;;;;;;28.24;79.02;100934.52;109297;1244;63063;-70
2023/07/04 07:46:46;;;;;;;10.30;7.50;;;;;;;28.23;78.58;100939.38;109309;1244;58061;-70
2023/07/04 07:49:14;;;;;;;10.30;7.80;;;;;;;28.33;78.23;100937.05;109473;1243;61600;-70
2023/07/04 07:51:44;;;;;;;10.40;7.00;;;;;;;28.21;79.09;100936.79;109407;1243;74123;-70
2023/07/04 07:54:14;;;;;;;11.00;8.90;;;;;;;28.46;78.04;100930.05;109456;1244;63285;-70
2023/07/04 07:56:45;;;;;;;14.30;9.10;;;;;;;28.60;76.92;100930.20;109476;1243;61922;-70
2023/07/04 07:59:14;;;;;;;10.60;8.60;;;;;;;28.70;72.96;100932.64;109327;1245;74933;-69
2023/07/04 08:01:43;;;;;;;12.10;7.90;;;;;;;28.76;70.48;100929.70;109293;1247;58408;-69
2023/07/04 08:04:12;;;;;;;11.20;8.40;;;;;;;29.03;69.48;100925.50;109405;1243;60329;-69
2023/07/04 08:06:45;;;;;;;;;;;;;;;29.29;68.89;100925.43;109409;1244;74030;-70
2023/07/04 08:09:17;;;;;;;13.10;7.70;;;;;;;29.58;68.54;100922.14;109403;1244;72972;-70
2023/07/04 08:11:48;;;;;;;10.80;8.00;;;;;;;29.70;66.41;100924.27;109460;1243;61868;-70
2023/07/04 08:14:20;;;;;;;11.70;8.10;;;;;;;29.74;65.29;100925.55;109276;1244;74204;-70
2023/07/04 08:16:53;;;;;;;9.90;7.40;;;;;;;29.69;65.07;100922.91;109289;1244;61435;-70
2023/07/04 08:19:24;;;;;;;8.50;6.90;;;;;;;29.89;64.47;100916.35;109352;1244;57688;-69
2023/07/04 08:21:54;;;;;;;12.80;9.00;;;;;;;29.68;64.36;100917.33;109304;1243;64780;-72
2023/07/04 08:24:23;;;;;;;11.70;8.20;;;;;;;29.42;65.36;100920.27;109412;1245;62066;-68
2023/07/04 08:26:55;;;;;;;8.90;8.00;;;;;;;29.48;65.97;100917.42;109370;1245;59115;-70
2023/07/04 08:29:24;;;;;;;9.30;8.00;;;;;;;29.43;65.30;100915.55;109326;1243;65009;-69
2023/07/04 08:31:53;;;;;;;11.20;7.20;;;;;;;29.44;65.35;100918.70;109420;1243;58083;-70
2023/07/04 08:34:21;;;;;;;10.60;7.10;;;;;;;29.72;64.41;100920.83;109429;1243;58155;-69
2023/07/04 08:36:50;;;;;;;11.30;7.70;;;;;;;29.51;65.04;100925.13;109543;1243;65831;-69
2023/07/04 08:39:19;;;;;;;9.10;7.90;;;;;;;29.15;65.79;100923.27;109408;1246;61483;-69
2023/07/04 08:42:02;;;;;;;9.50;7.50;;;;;;;29.17;66.18;100920.73;109501;1243;59529;-70
2023/07/04 08:44:50;;;;;;;10.70;7.50;;;;;;;29.36;66.08;100920.11;109332;1243;64625;-70
2023/07/04 08:47:25;;;;;;;10.80;7.70;;;;;;;29.26;65.92;100921.51;109410;1246;58384;-70
2023/07/04 08:50:09;;;;;;;8.50;7.50;;;;;;;29.27;65.62;100927.13;109465;1243;58303;-70
2023/07/04 08:52:52;;;;;;;9.40;7.40;;;;;;;29.46;65.44;100923.74;109246;1249;63623;-70
2023/07/04 08:55:24;;;;;;;13.10;8.00;;;;;;;29.33;64.01;100917.11;109491;1243;72060;-70
2023/07/04 08:58:01;;;;;;;10.20;8.10;;;;;;;29.13;64.35;100913.48;109331;1243;59934;-70
2023/07/04 09:00:38;;;;;;;10.40;8.20;;;;;;;29.41;63.95;100911.90;109327;1247;62433;-70
2023/07/04 09:03:53;;;;;;;8.00;7.00;;;;;;;29.44;64.02;100912.64;109415;1244;57744;-71
2023/07/04 09:06:41;;;;;;;11.10;7.20;;;;;;;29.60;63.91;100915.52;109312;1246;58283;-69
2023/07/04 09:10:01;;;;;;;12.40;7.50;;;;;;;29.84;63.31;100914.43;109513;1244;63655;-70
2023/07/04 09:12:35;;;;;;;10.30;8.00;;;;;;;30.06;61.99;100915.27;109206;1251;61849;-70
2023/07/04 09:15:31;;;;;;;13.40;8.40;;;;;;;30.29;60.99;100911.48;109384;1244;59075;-70
2023/07/04 09:18:08;;;;;;;7.40;6.60;;;;;;;30.39;60.07;100911.61;109457;1244;63283;-70
2023/07/04 09:21:08;;;;;;;11.40;7.60;;;;;;;30.62;58.80;100906.42;109472;1244;61093;-71
2023/07/04 09:23:37;;;;;;;9.80;7.90;;;;;;;30.49;59.73;100911.00;109510;1243;58118;-70
2023/07/04 09:26:10;;;;;;;10.50;8.40;;;;;;;30.63;58.36;100910.36;109314;1245;62794;-70
2023/07/04 09:28:43;;;;;;;9.30;7.50;;;;;;;30.39;58.55;100908.42;109274;1246;61706;-72
2023/07/04 09:31:31;;;;;;;9.10;7.40;;;;;;;30.61;58.73;100909.33;109411;1244;61108;-71
2023/07/04 09:34:47;;;;;;;8.40;6.80;;;;;;;30.80;58.12;100901.80;109442;1244;63520;-71
2023/07/04 09:37:22;;;;;;;10.00;6.40;;;;;;;30.74;57.15;100898.68;109037;1249;57940;-69
2023/07/04 09:39:57;;;;;;;9.30;5.90;;;;;;;30.97;56.44;100900.70;109412;1244;58398;-70
2023/07/04 09:42:32;;;;;;;9.50;6.40;;;;;;;31.41;54.67;100901.41;109407;1246;63585;-70
2023/07/04 09:45:23;;;;;;;7.30;6.50;;;;;;;31.03;54.78;100901.89;109426;1244;61577;-70
2023/07/04 09:47:52;;;;;;;7.20;5.70;;;;;;;30.84;55.49;100899.87;109443;1243;61539;-70
2023/07/04 09:50:31;;;;;;;7.00;6.30;;;;;;;31.10;54.50;100894.55;109347;1245;73651;-70
2023/07/04 09:53:18;;;;;;;9.50;6.70;;;;;;;31.45;54.05;100889.83;109407;1245;57717;-70
2023/07/04 09:56:01;;;;;;;9.50;6.70;;;;;;;31.56;53.55;100890.02;109339;1244;58410;-70
2023/07/04 09:58:30;;;;;;;8.00;6.50;;;;;;;31.36;54.02;100891.68;109392;1243;73743;-72
2023/07/04 10:01:19;;;;;;;7.50;6.40;;;;;;;31.66;53.47;100883.84;109467;1243;64016;-72
2023/07/04 10:03:49;;;;;;;7.90;6.70;;;;;;;31.84;53.16;100881.65;109453;1246;59532;-73
2023/07/04 10:06:39;;;;;;;7.30;6.40;;;;;;;31.80;51.96;100877.64;109359;1243;73950;-71
2023/07/04 10:09:20;;;;;;;8.90;6.90;;;;;;;31.64;52.94;100874.33;109435;1245;58384;-71
2023/07/04 10:11:51;;;;;;;7.60;6.50;;;;;;;31.21;54.11;100876.95;109279;1244;60221;-69
2023/07/04 10:14:33;;;;;;;9.80;6.20;;;;;;;31.38;54.18;100876.39;109308;1247;64226;-71
2023/07/04 10:17:18;;;;;;;12.50;7.30;;;;;;;31.92;53.23;100876.12;109380;1244;72260;-70
2023/07/04 10:19:54;;;;;;;9.20;6.30;;;;;;;31.93;52.32;100874.77;109452;1245;62119;-73
2023/07/04 10:22:32;;;;;;;6.50;5.90;;;;;;;32.23;51.58;100871.73;109372;1244;63921;-72
2023/07/04 10:25:02;;;;;;;7.40;6.20;;;;;;;32.65;50.95;100871.35;109484;1244;58257;-69
2023/07/04 10:27:35;;;;;;;11.20;7.30;;;;;;;33.03;49.89;100858.93;109472;1243;60209;-73
2023/07/04 10:30:11;;;;;;;8.90;6.20;;;;;;;33.34;47.69;100863.14;109454;1243;75176;-71
2023/07/04 10:33:00;;;;;;;8.90;6.40;;;;;;;33.70;47.18;100865.95;109416;1246;62214;-70
2023/07/04 10:35:33;;;;;;;8.70;6.10;;;;;;;33.70;46.44;100862.98;109313;1244;62754;-72
2023/07/04 10:38:17;;;;;;;7.00;5.80;;;;;;;33.47;46.92;100866.38;109399;1245;63933;-69
2023/07/04 10:40:46;;;;;;;7.80;6.30;;;;;;;34.05;45.75;100855.77;109460;1245;59285;-70
2023/07/04 10:43:25;;;;;;;8.50;6.20;;;;;;;33.90;45.69;100850.11;109448;1243;57680;-71
2023/07/04 10:45:58;;;;;;;6.50;5.80;;;;;;;33.30;46.97;100853.61;109398;1243;65401;-70
2023/07/04 10:48:33;;;;;;;14.40;12.80;;;;;;;33.51;46.94;100854.56;109309;1243;62097;-69
2023/07/04 10:51:18;;;;;;;8.00;6.50;;;;;;;33.57;46.31;100851.94;109341;1243;60105;-70
2023/07/04 10:53:46;;;;;;;7.30;6.00;;;;;;;33.84;45.88;100850.24;109436;1244;64928;-71
2023/07/04 10:56:26;;;;;;;9.00;5.50;;;;;;;34.48;44.93;100847.52;109421;1243;58338;-70
2023/07/04 10:59:06;;;;;;;9.10;6.10;;;;;;;34.72;44.15;100846.45;109311;1243;57704;-70
2023/07/04 11:01:49;;;;;;;9.10;5.30;;;;;;;34.43;43.52;100844.40;109357;1243;65403;-70
2023/07/04 11:04:37;;;;;;;6.70;5.50;;;;;;;35.12;42.33;100835.79;109314;1243;71667;-71
2023/07/04 11:07:21;;;;;;;9.90;6.20;;;;;;;35.87;40.98;100840.38;109247;1244;70677;-71
2023/07/04 11:10:02;;;;;;;8.50;6.10;;;;;;;35.60;41.34;100834.75;109229;1243;62960;-70
2023/07/04 11:12:37;;;;;;;8.40;6.30;;;;;;;35.25;41.40;100833.96;109285;1243;57765;-70
2023/07/04 11:15:29;;;;;;;7.70;6.30;;;;;;;34.97;41.98;100836.67;109308;1243;57772;-71
2023/07/04 11:18:00;;;;;;;9.00;6.40;;;;;;;35.26;41.69;100834.27;109241;1244;75371;-70
2023/07/04 11:20:54;;;;;;;;;;;;;;;35.30;40.91;100826.08;109236;1244;61856;-71
2023/07/04 11:23:23;;;;;;;10.00;5.30;;;;;;;35.84;40.83;100823.51;109253;1244;69732;-71
2023/07/04 11:26:07;;;;;;;6.00;5.30;;;;;;;35.99;40.05;100823.75;109434;1246;71645;-73
2023/07/04 11:28:36;;;;;;;5.90;5.10;;;;;;;36.19;39.70;100815.67;109360;1245;58320;-69
2023/07/04 11:31:11;;;;;;;6.50;5.50;;;;;;;36.17;38.83;100815.59;109476;1243;61526;-71